Time;durP1;ratioP1;P1;durP2;ratioP2;P2;SDS_P1;SDS_P2;PMS_P1;PMS_P2;Temp;Humidity;BMP_temperature;BMP_pressure;BME280_temperature;BME280_humidity;BME280_pressure;Samples;Min_cycle;Max_cycle;Signal;HPM_P1;HPM_P2
2022/01/23 00:01:33;;;;;;;6.97;3.67;;;-1.40;99.90;;;;;;5112157;27;20486;-77
2022/01/23 00:04:00;;;;;;;6.57;3.77;;;-1.40;99.90;;;;;;5111911;28;20452;-77
2022/01/23 00:06:27;;;;;;;6.13;3.40;;;-1.30;99.90;;;;;;5111970;28;20448;-76
2022/01/23 00:08:56;;;;;;;7.43;4.23;;;-1.40;99.90;;;;;;5111843;28;20454;-76
2022/01/23 00:11:26;;;;;;;7.43;3.90;;;-1.30;99.90;;;;;;5111850;28;20449;-76
2022/01/23 00:19:28;;;;;;;8.30;4.17;;;-1.40;99.90;;;;;;5103187;27;20437;-76
2022/01/23 00:21:57;;;;;;;6.30;4.67;;;-1.50;99.90;;;;;;5111680;28;21282;-76
2022/01/23 00:32:39;;;;;;;8.70;4.03;;;-1.80;99.90;;;;;;5111051;28;20600;-77
2022/01/23 00:35:07;;;;;;;7.40;3.67;;;-1.90;99.90;;;;;;5111354;28;20476;-76
2022/01/23 00:37:34;;;;;;;7.77;4.27;;;-1.90;99.90;;;;;;5111025;28;20554;-76
2022/01/23 00:40:04;;;;;;;6.70;4.20;;;-1.90;99.90;;;;;;5110888;28;20456;-76
2022/01/23 00:42:31;;;;;;;7.13;3.70;;;-1.90;99.90;;;;;;5111319;28;20447;-77
2022/01/23 00:45:11;;;;;;;7.67;3.83;;;-1.90;99.90;;;;;;5114192;28;20463;-76
2022/01/23 00:47:38;;;;;;;9.10;4.30;;;-1.90;99.90;;;;;;5116399;28;20531;-76
2022/01/23 00:50:06;;;;;;;6.90;3.80;;;-1.80;99.90;;;;;;5123538;27;20485;-77
2022/01/23 00:52:33;;;;;;;8.87;3.90;;;-1.90;99.90;;;;;;5128940;28;20878;-76
2022/01/23 00:55:04;;;;;;;8.37;3.47;;;-2.00;99.90;;;;;;5116099;28;20483;-76
2022/01/23 00:57:33;;;;;;;5.33;3.37;;;-1.90;99.90;;;;;;5111442;28;20482;-76
2022/01/23 01:00:00;;;;;;;9.03;4.70;;;-1.90;99.90;;;;;;5110275;28;20914;-76
2022/01/23 01:02:28;;;;;;;6.63;4.10;;;-2.00;99.90;;;;;;5111003;28;20866;-76
2022/01/23 01:04:55;;;;;;;7.80;3.60;;;-2.00;99.90;;;;;;5110314;28;20471;-76
2022/01/23 01:07:22;;;;;;;8.30;4.00;;;-1.90;99.90;;;;;;5110790;28;20454;-76
2022/01/23 01:09:52;;;;;;;7.03;3.80;;;-2.00;99.90;;;;;;5110863;28;20535;-76
2022/01/23 01:12:23;;;;;;;6.20;3.70;;;-1.90;99.90;;;;;;5111011;28;20452;-76
2022/01/23 01:15:23;;;;;;;8.33;4.60;;;-1.90;99.90;;;;;;5110518;28;20477;-77
2022/01/23 01:31:36;;;;;;;6.77;3.67;;;-1.50;99.90;;;;;;5110514;28;20527;-77
2022/01/23 01:34:07;;;;;;;7.33;4.47;;;-1.60;99.90;;;;;;5110309;28;20527;-77
2022/01/23 01:36:45;;;;;;;9.80;4.73;;;-1.80;99.90;;;;;;5110435;28;20506;-76
2022/01/23 01:39:12;;;;;;;9.40;4.43;;;-1.90;99.90;;;;;;5110487;28;20471;-77
2022/01/23 01:41:41;;;;;;;10.47;4.40;;;-1.90;99.90;;;;;;5110426;28;20536;-75
2022/01/23 01:44:08;;;;;;;9.00;4.40;;;-1.90;99.90;;;;;;5110414;28;20461;-76
2022/01/23 01:46:37;;;;;;;9.70;4.40;;;-1.90;99.90;;;;;;5110286;28;20534;-77
2022/01/23 01:49:04;;;;;;;8.23;4.80;;;-1.90;99.90;;;;;;5110068;28;20488;-77
2022/01/23 01:51:33;;;;;;;7.40;4.00;;;-1.90;99.90;;;;;;5110458;28;20446;-77
2022/01/23 01:54:08;;;;;;;9.30;4.40;;;-1.80;99.90;;;;;;5110270;28;20556;-77
2022/01/23 01:56:46;;;;;;;8.93;4.87;;;-1.80;99.90;;;;;;5110031;28;20459;-77
2022/01/23 01:59:21;;;;;;;8.97;5.00;;;-1.90;99.90;;;;;;5110254;27;20571;-77
2022/01/23 02:10:06;;;;;;;9.30;4.93;;;-1.90;99.90;;;;;;5110086;28;20438;-76
2022/01/23 02:22:21;;;;;;;6.83;4.50;;;-2.10;99.90;;;;;;5086666;27;21197;-76
2022/01/23 02:24:33;;;;;;;8.40;5.10;;;-2.10;99.90;;;;;;5086953;28;20507;-76
2022/01/23 02:52:10;;;;;;;8.30;4.40;;;-2.20;99.90;;;;;;5086745;28;20522;-76
2022/01/23 02:54:57;;;;;;;6.43;4.63;;;-2.40;99.90;;;;;;5086797;28;20455;-76
2022/01/23 02:57:39;;;;;;;7.50;4.40;;;-2.70;99.90;;;;;;5086637;28;20521;-76
2022/01/23 03:00:12;;;;;;;9.30;4.90;;;-2.60;99.90;;;;;;5086410;28;20460;-76
2022/01/23 03:02:43;;;;;;;9.20;4.80;;;-2.60;99.90;;;;;;5086361;28;20455;-76
2022/01/23 03:05:22;;;;;;;7.57;4.93;;;-2.60;99.90;;;;;;5071765;28;20459;-76
2022/01/23 03:08:00;;;;;;;8.43;5.23;;;-2.70;99.90;;;;;;5065553;28;20542;-77
2022/01/23 03:10:33;;;;;;;13.87;4.80;;;-2.70;99.90;;;;;;5066266;28;20468;-76
2022/01/23 03:16:09;;;;;;;8.23;4.50;;;-2.90;99.90;;;;;;5065813;28;20545;-76
2022/01/23 03:27:04;;;;;;;6.97;4.37;;;-2.90;99.90;;;;;;5040792;28;20462;-76
2022/01/23 03:29:51;;;;;;;7.23;4.50;;;-2.90;99.90;;;;;;5053428;28;20456;-76
2022/01/23 03:32:24;;;;;;;7.10;4.93;;;-2.80;99.90;;;;;;5052791;28;20462;-77
2022/01/23 03:34:51;;;;;;;7.63;4.83;;;-2.90;99.90;;;;;;5052683;28;20460;-77
2022/01/23 03:37:19;;;;;;;8.07;4.90;;;-2.90;99.90;;;;;;5052056;28;20494;-76
2022/01/23 03:39:46;;;;;;;7.67;4.60;;;-2.80;99.90;;;;;;5053482;28;20514;-75
2022/01/23 03:42:14;;;;;;;9.00;5.77;;;-2.70;99.90;;;;;;5058123;28;20454;-76
2022/01/23 03:44:52;;;;;;;9.93;6.10;;;-2.80;99.90;;;;;;5059435;28;20801;-75
2022/01/23 03:47:33;;;;;;;9.30;5.70;;;-2.80;99.90;;;;;;5069828;28;20487;-76
2022/01/23 03:49:59;;;;;;;9.27;4.83;;;-2.80;99.90;;;;;;5064642;28;20485;-75
2022/01/23 03:52:26;;;;;;;10.30;5.30;;;-2.50;99.90;;;;;;5052634;28;20543;-78
2022/01/23 03:54:54;;;;;;;12.70;6.00;;;-2.50;99.90;;;;;;5052289;28;20538;-69
2022/01/23 03:57:22;;;;;;;7.93;4.80;;;-2.60;99.90;;;;;;5051849;28;20501;-69
2022/01/23 03:59:49;;;;;;;6.57;4.40;;;-2.50;99.90;;;;;;5051302;28;20879;-69
2022/01/23 04:02:17;;;;;;;10.63;5.73;;;-2.50;99.90;;;;;;5051823;28;20846;-70
2022/01/23 04:04:44;;;;;;;9.07;5.33;;;-2.30;99.90;;;;;;5051361;28;20482;-71
2022/01/23 04:07:15;;;;;;;10.53;3.97;;;-2.30;99.90;;;;;;5051569;28;20500;-70
2022/01/23 04:09:43;;;;;;;8.83;5.50;;;-2.30;99.90;;;;;;5051889;28;20467;-70
2022/01/23 04:12:24;;;;;;;12.23;5.63;;;-2.30;99.90;;;;;;5051824;28;20925;-71
2022/01/23 04:14:59;;;;;;;14.33;5.13;;;-2.20;99.90;;;;;;5051299;28;20458;-71
2022/01/23 04:20:37;;;;;;;9.37;4.87;;;-2.40;99.90;;;;;;5051684;28;20438;-70
2022/01/23 04:34:18;;;;;;;7.60;4.33;;;-2.30;99.90;;;;;;5051227;28;20438;-72
2022/01/23 05:01:54;;;;;;;8.53;4.90;;;-2.00;99.90;;;;;;5051050;28;20433;-76
2022/01/23 05:04:28;;;;;;;9.80;5.30;;;-1.90;99.90;;;;;;5050839;28;20452;-76
2022/01/23 05:07:00;;;;;;;9.50;5.43;;;-1.90;99.90;;;;;;5050571;28;20546;-76
2022/01/23 05:09:28;;;;;;;6.97;4.30;;;-1.60;99.90;;;;;;5051020;28;20447;-69
2022/01/23 05:11:58;;;;;;;8.93;5.20;;;-1.70;99.90;;;;;;5050551;28;20452;-75
2022/01/23 05:14:32;;;;;;;7.73;4.60;;;-1.90;99.90;;;;;;5050481;28;20492;-76
2022/01/23 05:16:59;;;;;;;7.63;5.20;;;-1.80;99.90;;;;;;5050113;28;20923;-79
2022/01/23 05:19:28;;;;;;;7.10;5.30;;;-1.80;99.90;;;;;;5050399;28;20484;-74
2022/01/23 05:22:16;;;;;;;7.97;5.20;;;-1.70;99.90;;;;;;5050126;28;20950;-70
2022/01/23 05:24:49;;;;;;;8.30;4.53;;;-1.70;99.90;;;;;;5050240;28;20550;-71
2022/01/23 05:27:16;;;;;;;7.77;4.67;;;-1.90;99.90;;;;;;5049965;28;20516;-72
2022/01/23 05:29:43;;;;;;;6.83;4.20;;;-1.70;99.90;;;;;;5050024;28;20976;-72
2022/01/23 05:32:12;;;;;;;6.67;4.20;;;-1.70;99.90;;;;;;5050172;28;20918;-74
2022/01/23 05:34:42;;;;;;;11.10;4.90;;;-1.70;99.90;;;;;;5050066;28;20457;-74
2022/01/23 05:37:09;;;;;;;10.80;4.87;;;-1.80;99.90;;;;;;5050059;28;21015;-74
2022/01/23 05:39:36;;;;;;;7.90;4.47;;;-1.70;99.90;;;;;;5050187;28;20451;-74
2022/01/23 05:42:09;;;;;;;8.47;4.93;;;-1.60;99.90;;;;;;5049953;28;20456;-72
2022/01/23 05:44:37;;;;;;;9.07;4.70;;;-1.60;99.90;;;;;;5049932;28;20459;-71
2022/01/23 05:47:05;;;;;;;6.93;4.57;;;-1.60;99.90;;;;;;5049687;28;20509;-72
2022/01/23 05:49:32;;;;;;;7.60;4.57;;;-1.60;99.90;;;;;;5049804;28;20456;-73
2022/01/23 05:52:01;;;;;;;7.53;3.90;;;-1.80;99.90;;;;;;5049521;28;20462;-73
2022/01/23 05:54:28;;;;;;;8.70;4.70;;;-1.80;99.90;;;;;;5049686;28;20469;-74
2022/01/23 05:56:55;;;;;;;7.60;4.60;;;-1.70;99.90;;;;;;5049245;28;20474;-73
2022/01/23 05:59:22;;;;;;;7.57;4.80;;;-1.90;99.90;;;;;;5049803;28;20864;-74
2022/01/23 06:01:51;;;;;;;8.13;5.63;;;-2.00;99.90;;;;;;5049722;28;20460;-72
2022/01/23 06:04:18;;;;;;;8.60;4.90;;;-1.90;99.90;;;;;;5049507;28;20461;-72
2022/01/23 06:06:46;;;;;;;8.20;4.20;;;-1.80;99.90;;;;;;5049107;28;20476;-67
2022/01/23 06:09:15;;;;;;;12.00;5.20;;;-1.90;99.90;;;;;;5049648;28;20484;-71
2022/01/23 06:11:42;;;;;;;7.33;4.60;;;-1.90;99.90;;;;;;5049349;28;20495;-71
2022/01/23 06:14:10;;;;;;;7.63;4.07;;;-1.90;99.90;;;;;;5049601;28;20464;-71
2022/01/23 06:16:38;;;;;;;6.97;4.47;;;-1.70;99.90;;;;;;5049205;28;20578;-72
2022/01/23 06:19:05;;;;;;;8.40;4.93;;;-1.70;99.90;;;;;;5048815;28;20492;-71
2022/01/23 06:21:33;;;;;;;9.40;4.80;;;-1.60;99.90;;;;;;5048216;28;20443;-71
2022/01/23 06:24:03;;;;;;;9.00;5.07;;;-1.60;99.90;;;;;;5049718;28;20931;-72
2022/01/23 06:26:43;;;;;;;7.13;4.30;;;-1.70;99.90;;;;;;5049321;28;20524;-71
2022/01/23 06:29:11;;;;;;;7.93;4.13;;;-1.70;99.90;;;;;;5049702;28;20564;-71
2022/01/23 06:31:39;;;;;;;11.53;4.67;;;-1.70;99.90;;;;;;5049693;28;20798;-72
2022/01/23 06:34:07;;;;;;;8.30;4.33;;;-1.80;99.90;;;;;;5049159;28;20458;-72
2022/01/23 06:36:35;;;;;;;7.93;4.77;;;-1.60;99.90;;;;;;5049096;28;20941;-71
2022/01/23 06:39:02;;;;;;;9.60;5.80;;;-1.70;99.90;;;;;;5049464;28;20492;-72
2022/01/23 06:41:30;;;;;;;7.93;4.83;;;-1.70;99.90;;;;;;5049701;28;20539;-72
2022/01/23 06:43:58;;;;;;;8.80;5.60;;;-1.60;99.90;;;;;;5050061;28;20457;-73
2022/01/23 06:46:25;;;;;;;8.30;5.73;;;-1.80;99.90;;;;;;5051481;28;20786;-72
2022/01/23 06:48:52;;;;;;;10.17;5.43;;;-1.80;99.90;;;;;;5049177;28;20984;-73
2022/01/23 06:51:19;;;;;;;8.40;5.00;;;-1.70;99.90;;;;;;5049474;28;20455;-74
2022/01/23 06:53:46;;;;;;;12.30;5.70;;;-1.90;99.90;;;;;;5049375;28;20464;-75
2022/01/23 06:56:14;;;;;;;7.73;5.30;;;-1.90;99.90;;;;;;5049479;28;20514;-76
2022/01/23 06:58:42;;;;;;;8.80;5.13;;;-1.80;99.90;;;;;;5049412;28;20489;-77
2022/01/23 07:01:10;;;;;;;10.07;5.20;;;-1.80;99.90;;;;;;5047999;28;20516;-75
2022/01/23 07:03:38;;;;;;;7.57;4.40;;;-1.70;99.90;;;;;;5050386;28;20498;-75
2022/01/23 07:06:05;;;;;;;9.17;5.50;;;-1.80;99.90;;;;;;5052859;28;20518;-77
2022/01/23 07:08:33;;;;;;;8.03;5.00;;;-1.90;99.90;;;;;;5053078;28;20604;-73
2022/01/23 07:11:01;;;;;;;6.73;4.30;;;-2.00;99.90;;;;;;5052985;28;20459;-73
2022/01/23 07:13:28;;;;;;;8.00;4.83;;;-2.30;99.90;;;;;;5053068;28;20834;-71
2022/01/23 07:15:57;;;;;;;9.10;5.33;;;-2.30;99.90;;;;;;5052331;28;20452;-74
2022/01/23 07:18:24;;;;;;;11.10;6.50;;;-2.10;99.90;;;;;;5052552;28;20504;-74
2022/01/23 07:20:51;;;;;;;10.17;6.33;;;-1.90;99.90;;;;;;5052823;28;20459;-73
2022/01/23 07:23:21;;;;;;;11.40;6.13;;;-1.80;99.90;;;;;;5052780;28;20456;-76
2022/01/23 07:25:49;;;;;;;12.23;6.37;;;-1.90;99.90;;;;;;5052739;28;20585;-76
2022/01/23 07:28:19;;;;;;;8.43;5.80;;;-1.70;99.90;;;;;;5052712;28;20449;-76
2022/01/23 07:30:51;;;;;;;10.53;7.30;;;-1.60;99.90;;;;;;5052582;28;20472;-73
2022/01/23 07:33:20;;;;;;;11.23;6.40;;;-1.40;99.90;;;;;;5052471;28;20457;-70
2022/01/23 07:35:48;;;;;;;13.40;7.10;;;-1.30;99.90;;;;;;5052472;28;20509;-69
2022/01/23 07:38:16;;;;;;;12.00;7.33;;;-1.20;99.90;;;;;;5052419;28;20493;-73
2022/01/23 07:40:45;;;;;;;13.43;7.57;;;-1.00;99.90;;;;;;5051041;28;20457;-71
2022/01/23 07:43:12;;;;;;;9.57;6.80;;;-1.10;99.90;;;;;;5052205;28;21000;-73
2022/01/23 07:45:39;;;;;;;12.17;7.03;;;-1.00;99.90;;;;;;5052340;28;20457;-74
2022/01/23 07:48:06;;;;;;;13.23;8.33;;;-0.90;99.90;;;;;;5052123;28;20942;-73
2022/01/23 07:50:36;;;;;;;14.30;8.77;;;-0.80;99.90;;;;;;5050925;28;20449;-73
2022/01/23 07:53:03;;;;;;;10.67;7.93;;;-0.60;99.90;;;;;;5052145;28;20523;-70
2022/01/23 07:55:30;;;;;;;14.90;8.40;;;-0.70;99.90;;;;;;5051595;28;20469;-67
2022/01/23 07:58:02;;;;;;;12.73;7.80;;;-0.70;99.90;;;;;;5051751;28;20505;-67
2022/01/23 08:00:30;;;;;;;16.00;8.50;;;-0.60;99.90;;;;;;5051949;28;20821;-70
2022/01/23 08:02:57;;;;;;;12.53;7.60;;;-0.70;99.90;;;;;;5051932;28;20458;-71
2022/01/23 08:05:24;;;;;;;12.50;7.87;;;-0.80;99.90;;;;;;5051746;28;21006;-72
2022/01/23 08:07:53;;;;;;;11.87;7.70;;;-0.90;99.90;;;;;;5051455;28;20954;-72
2022/01/23 08:10:20;;;;;;;14.20;8.00;;;-0.90;99.90;;;;;;5051455;28;20503;-72
2022/01/23 08:12:47;;;;;;;11.80;7.70;;;-1.00;99.90;;;;;;5051842;28;20462;-72
2022/01/23 08:15:14;;;;;;;12.10;7.63;;;-0.90;99.90;;;;;;5050940;28;20933;-72
2022/01/23 08:17:41;;;;;;;12.80;7.33;;;-1.00;99.90;;;;;;5050903;28;20540;-71
2022/01/23 08:20:10;;;;;;;14.63;6.90;;;-1.10;99.90;;;;;;5051554;28;20460;-71
2022/01/23 08:22:37;;;;;;;9.60;6.00;;;-1.20;99.90;;;;;;5051288;28;20936;-71
2022/01/23 08:25:06;;;;;;;12.07;6.30;;;-1.50;99.90;;;;;;5051329;28;20876;-72
2022/01/23 08:27:34;;;;;;;13.73;7.07;;;-1.60;99.90;;;;;;5050034;28;20469;-72
2022/01/23 08:30:02;;;;;;;11.87;7.07;;;-1.50;99.90;;;;;;5051778;28;20531;-71
2022/01/23 08:32:29;;;;;;;10.70;6.27;;;-1.20;99.90;;;;;;5051295;28;20495;-71
2022/01/23 08:34:56;;;;;;;10.10;6.97;;;-1.20;99.90;;;;;;5051030;28;20941;-72
2022/01/23 08:37:23;;;;;;;11.40;6.47;;;-1.20;99.90;;;;;;5051217;28;20568;-72
2022/01/23 08:39:50;;;;;;;13.40;7.00;;;-1.30;99.90;;;;;;5051066;28;20491;-72
2022/01/23 08:42:19;;;;;;;10.03;7.03;;;-1.30;99.90;;;;;;5051071;28;20452;-70
2022/01/23 08:44:47;;;;;;;10.70;6.87;;;-1.10;99.90;;;;;;5051108;28;20786;-68
2022/01/23 08:47:14;;;;;;;8.13;5.83;;;-1.00;99.90;;;;;;5050902;28;20456;-68
2022/01/23 08:49:46;;;;;;;10.63;6.10;;;-1.00;99.90;;;;;;5050883;28;20473;-72
2022/01/23 08:52:16;;;;;;;8.50;5.87;;;-1.00;99.90;;;;;;5050932;28;20563;-74
2022/01/23 08:54:44;;;;;;;13.07;5.90;;;-1.10;99.90;;;;;;5050744;28;20463;-74
2022/01/23 08:57:12;;;;;;;7.63;4.80;;;-1.00;99.90;;;;;;5050458;28;20927;-74
2022/01/23 08:59:41;;;;;;;9.37;6.03;;;-1.00;99.90;;;;;;5050605;28;20510;-72
2022/01/23 09:02:09;;;;;;;12.67;7.50;;;-1.00;99.90;;;;;;5050634;28;20530;-73
2022/01/23 09:04:36;;;;;;;12.47;6.80;;;-1.10;99.90;;;;;;5050343;28;20491;-73
2022/01/23 09:07:04;;;;;;;9.93;5.63;;;-0.90;99.90;;;;;;5050610;28;20465;-74
2022/01/23 09:09:36;;;;;;;8.70;5.90;;;-0.70;99.90;;;;;;5050526;28;20832;-73
2022/01/23 09:12:07;;;;;;;12.20;5.93;;;-0.70;99.90;;;;;;5050696;28;20454;-74
2022/01/23 09:14:34;;;;;;;11.90;6.33;;;-0.90;99.90;;;;;;5050652;28;20566;-72
2022/01/23 09:17:05;;;;;;;10.73;5.93;;;-1.00;99.90;;;;;;5049915;28;20490;-72
2022/01/23 09:19:32;;;;;;;12.80;6.30;;;-0.80;99.90;;;;;;5050609;28;20900;-72
2022/01/23 09:22:00;;;;;;;12.03;6.33;;;-0.80;99.90;;;;;;5050494;28;20455;-73
2022/01/23 09:24:30;;;;;;;11.50;5.50;;;-0.70;99.90;;;;;;5050445;28;20499;-74
2022/01/23 09:27:02;;;;;;;13.80;6.13;;;-0.70;99.90;;;;;;5050114;28;20536;-72
2022/01/23 09:29:33;;;;;;;10.40;5.73;;;-0.80;99.90;;;;;;5050233;28;20454;-73
2022/01/23 09:32:03;;;;;;;9.83;5.67;;;-1.00;99.90;;;;;;5050113;28;20457;-73
2022/01/23 09:34:32;;;;;;;8.93;5.83;;;-1.20;99.90;;;;;;5050382;28;20469;-73
2022/01/23 09:37:01;;;;;;;12.23;6.17;;;-1.10;99.90;;;;;;5050659;28;20606;-71
2022/01/23 09:39:29;;;;;;;9.73;6.13;;;-1.00;99.90;;;;;;5050354;28;20523;-72
2022/01/23 09:42:00;;;;;;;9.73;4.90;;;-0.90;99.90;;;;;;5050386;28;20457;-73
2022/01/23 09:44:31;;;;;;;8.70;5.57;;;-0.80;99.90;;;;;;5050437;28;20496;-72
2022/01/23 09:46:58;;;;;;;7.57;5.30;;;-0.90;99.90;;;;;;5050048;28;20543;-73
2022/01/23 09:49:30;;;;;;;9.00;5.53;;;-0.60;99.90;;;;;;5049735;28;20450;-73
2022/01/23 09:52:01;;;;;;;9.50;5.53;;;-0.60;99.90;;;;;;5049569;28;20472;-74
2022/01/23 09:54:31;;;;;;;12.40;5.30;;;-0.50;99.90;;;;;;5049595;28;20457;-72
2022/01/23 09:57:01;;;;;;;10.50;5.37;;;-0.80;99.90;;;;;;5049574;28;20461;-72
2022/01/23 09:59:29;;;;;;;10.97;6.30;;;-0.70;99.90;;;;;;5049875;28;20495;-75
2022/01/23 10:01:57;;;;;;;14.13;5.90;;;-0.70;99.90;;;;;;5049639;28;20549;-75
2022/01/23 10:04:25;;;;;;;10.70;5.57;;;-0.70;99.90;;;;;;5049502;28;20523;-76
2022/01/23 10:06:54;;;;;;;8.33;5.43;;;-0.70;99.90;;;;;;5049531;28;20483;-76
2022/01/23 10:09:24;;;;;;;9.77;5.90;;;-0.60;99.90;;;;;;5049531;28;20522;-75
2022/01/23 10:11:51;;;;;;;8.40;5.47;;;-0.60;99.90;;;;;;5049654;28;20988;-75
2022/01/23 10:14:20;;;;;;;12.43;6.37;;;-0.50;99.90;;;;;;5049365;28;20461;-74
2022/01/23 10:16:48;;;;;;;10.83;5.57;;;-0.60;99.90;;;;;;5048950;28;20492;-75
2022/01/23 10:19:16;;;;;;;9.43;5.97;;;-0.50;99.90;;;;;;5049204;28;20490;-75
2022/01/23 10:21:45;;;;;;;8.97;5.43;;;-0.40;99.90;;;;;;5049342;28;20522;-75
2022/01/23 10:24:14;;;;;;;11.27;6.50;;;-0.40;99.90;;;;;;5049394;28;20551;-75
2022/01/23 10:26:46;;;;;;;8.60;5.97;;;-0.20;99.90;;;;;;5049419;28;20450;-75
2022/01/23 10:29:16;;;;;;;8.40;4.80;;;-0.20;99.90;;;;;;5049656;28;20473;-76
2022/01/23 10:32:08;;;;;;;8.10;5.57;;;-0.20;99.20;;;;;;5049424;28;20454;-75
2022/01/23 10:34:48;;;;;;;10.13;5.00;;;-0.30;99.50;;;;;;5049184;28;20504;-74
2022/01/23 10:37:29;;;;;;;7.83;5.67;;;-0.40;99.90;;;;;;5049612;28;20447;-75
2022/01/23 10:39:59;;;;;;;10.57;4.70;;;-0.50;99.90;;;;;;5052747;28;20587;-75
2022/01/23 10:48:38;;;;;;;9.80;4.63;;;-0.60;99.30;;;;;;5053161;28;20507;-75
2022/01/23 10:51:35;;;;;;;7.77;5.17;;;-0.70;99.90;;;;;;5053005;28;20496;-76
2022/01/23 10:54:13;;;;;;;10.30;5.30;;;-0.60;99.90;;;;;;5029024;28;20466;-75
2022/01/23 10:56:59;;;;;;;8.23;5.37;;;-0.40;99.90;;;;;;5053189;28;20944;-75
2022/01/23 10:59:27;;;;;;;7.80;5.00;;;-0.40;99.70;;;;;;5052861;28;20603;-75
2022/01/23 11:02:04;;;;;;;9.47;4.80;;;-0.20;99.10;;;;;;5053003;28;20971;-74
2022/01/23 11:04:35;;;;;;;13.30;6.03;;;-0.20;98.70;;;;;;5052761;28;20460;-74
2022/01/23 11:07:05;;;;;;;8.43;5.20;;;-0.30;99.40;;;;;;5053096;28;20916;-75
2022/01/23 11:09:36;;;;;;;7.77;4.23;;;-0.20;98.50;;;;;;5052789;28;20919;-75
2022/01/23 11:12:14;;;;;;;7.73;4.30;;;-0.20;97.80;;;;;;5053061;28;20537;-74
2022/01/23 11:17:27;;;;;;;9.00;4.60;;;-0.10;98.40;;;;;;5052346;28;20957;-74
2022/01/23 11:19:56;;;;;;;7.43;4.23;;;-0.10;98.10;;;;;;5052484;28;20542;-74
2022/01/23 11:22:25;;;;;;;8.60;6.40;;;0.00;97.80;;;;;;5052801;28;20462;-75
2022/01/23 11:24:56;;;;;;;13.30;5.97;;;0.10;97.70;;;;;;5052560;28;20885;-74
2022/01/23 11:27:33;;;;;;;8.63;5.00;;;0.20;96.60;;;;;;5052699;28;20479;-72
2022/01/23 11:30:08;;;;;;;9.47;4.97;;;0.10;96.80;;;;;;5052242;28;20935;-72
2022/01/23 11:32:39;;;;;;;7.23;4.50;;;0.00;96.10;;;;;;5052432;28;20510;-73
2022/01/23 11:35:10;;;;;;;6.67;4.37;;;-0.30;97.30;;;;;;5052461;28;20824;-73
2022/01/23 11:37:44;;;;;;;8.37;4.13;;;-0.30;98.00;;;;;;5052300;28;20481;-70
2022/01/23 11:40:28;;;;;;;13.40;4.83;;;-0.30;98.00;;;;;;5052392;28;20527;-72
2022/01/23 11:54:03;;;;;;;6.40;3.87;;;-0.50;98.10;;;;;;5028486;28;20441;-71
2022/01/23 11:56:40;;;;;;;7.20;4.40;;;-0.60;98.60;;;;;;5051710;28;20458;-73
2022/01/23 11:59:34;;;;;;;7.77;4.03;;;-0.70;98.90;;;;;;5051964;28;20533;-71
2022/01/23 12:05:22;;;;;;;6.53;3.87;;;-0.50;99.50;;;;;;5051412;28;20447;-71
2022/01/23 12:08:34;;;;;;;10.97;5.13;;;-0.40;99.70;;;;;;5051390;28;20473;-71
2022/01/23 12:17:23;;;;;;;7.67;4.27;;;-0.20;99.60;;;;;;5050972;28;20889;-70
2022/01/23 12:19:57;;;;;;;8.07;4.50;;;-0.30;99.00;;;;;;5051238;28;20507;-76
2022/01/23 12:22:40;;;;;;;9.47;4.63;;;-0.30;99.90;;;;;;5051492;28;20460;-71
2022/01/23 12:25:27;;;;;;;12.20;4.90;;;-0.40;99.50;;;;;;5051417;28;20457;-67
2022/01/23 12:28:21;;;;;;;7.30;4.10;;;-0.50;99.60;;;;;;5051585;28;20571;-70
2022/01/23 12:30:50;;;;;;;7.10;4.20;;;-0.50;99.90;;;;;;5052452;28;20461;-75
2022/01/23 12:33:23;;;;;;;11.17;4.60;;;-0.40;99.90;;;;;;5053327;28;20499;-74
2022/01/23 12:35:53;;;;;;;7.17;3.97;;;-0.50;99.30;;;;;;5054596;28;20508;-74
2022/01/23 12:38:27;;;;;;;7.97;5.30;;;-0.60;99.60;;;;;;5053464;28;20860;-73
2022/01/23 12:40:54;;;;;;;10.70;5.60;;;-0.70;99.90;;;;;;5051200;28;20552;-74
2022/01/23 12:43:24;;;;;;;8.20;4.83;;;-0.40;99.90;;;;;;5051183;28;20510;-74
2022/01/23 12:45:55;;;;;;;8.73;4.77;;;-0.70;99.90;;;;;;5050546;28;21017;-74
2022/01/23 12:48:48;;;;;;;8.53;5.40;;;-0.70;99.90;;;;;;5051009;28;20470;-74
2022/01/23 12:51:42;;;;;;;7.80;4.03;;;-0.70;99.90;;;;;;5050796;28;20939;-74
2022/01/23 12:54:24;;;;;;;8.37;4.60;;;-1.00;99.90;;;;;;5050937;28;20570;-73
2022/01/23 12:56:52;;;;;;;7.60;4.00;;;-0.90;99.90;;;;;;5051095;28;20824;-74
2022/01/23 12:59:27;;;;;;;7.10;4.30;;;-0.90;99.90;;;;;;5050726;28;20547;-73
2022/01/23 13:02:01;;;;;;;7.47;3.80;;;-1.10;99.90;;;;;;5049807;28;20489;-74
2022/01/23 13:04:34;;;;;;;8.00;4.53;;;-1.20;99.90;;;;;;5050279;28;20465;-73
2022/01/23 13:07:19;;;;;;;8.03;5.30;;;-1.00;99.90;;;;;;5050431;28;20955;-74
2022/01/23 13:09:54;;;;;;;7.30;4.47;;;-0.90;99.90;;;;;;5050720;28;20490;-74
2022/01/23 13:15:23;;;;;;;10.50;4.50;;;-1.00;99.90;;;;;;5046402;28;20494;-73
2022/01/23 13:18:01;;;;;;;8.70;4.83;;;-1.10;99.90;;;;;;5050215;28;20599;-74
2022/01/23 13:26:52;;;;;;;7.20;4.73;;;-0.70;99.90;;;;;;5028553;28;20524;-74
2022/01/23 13:32:16;;;;;;;5.77;3.70;;;-0.90;99.90;;;;;;5050185;28;20442;-74
2022/01/23 13:34:49;;;;;;;9.63;5.00;;;-0.90;99.90;;;;;;5050230;28;20456;-73
2022/01/23 13:37:20;;;;;;;6.60;3.80;;;-1.00;99.90;;;;;;5049596;28;20452;-74
2022/01/23 13:39:53;;;;;;;7.60;4.50;;;-1.00;99.90;;;;;;5049943;28;20572;-74
2022/01/23 13:42:37;;;;;;;5.73;4.10;;;-0.90;99.90;;;;;;5049918;28;20515;-74
2022/01/23 13:53:50;;;;;;;9.43;5.27;;;-0.80;99.90;;;;;;5049408;28;20460;-73
2022/01/23 13:59:09;;;;;;;8.87;4.87;;;-0.60;99.90;;;;;;5049659;28;20449;-75
2022/01/23 14:01:49;;;;;;;8.47;4.60;;;-0.70;99.90;;;;;;5049986;28;20452;-75
2022/01/23 14:04:16;;;;;;;7.03;4.30;;;-0.70;99.90;;;;;;5049751;28;21007;-79
2022/01/23 14:06:43;;;;;;;7.13;3.97;;;-0.80;99.90;;;;;;5049477;28;20455;-72
2022/01/23 14:09:14;;;;;;;6.80;4.50;;;-0.90;99.90;;;;;;5049606;28;20473;-74
2022/01/23 14:11:42;;;;;;;7.40;4.50;;;-0.90;99.90;;;;;;5049666;28;20456;-72
2022/01/23 14:14:15;;;;;;;6.67;3.97;;;-1.00;99.90;;;;;;5049417;28;20463;-73
2022/01/23 14:16:42;;;;;;;8.13;5.60;;;-0.90;99.90;;;;;;5049191;28;21417;-73
2022/01/23 14:19:21;;;;;;;7.80;4.37;;;-0.80;99.90;;;;;;5049262;28;20536;-73
2022/01/23 14:21:50;;;;;;;6.90;4.47;;;-0.80;99.90;;;;;;5048969;28;20464;-73
2022/01/23 14:24:24;;;;;;;8.10;4.80;;;-0.80;99.90;;;;;;5049460;28;20454;-73
2022/01/23 14:27:00;;;;;;;6.50;4.20;;;-0.70;99.90;;;;;;5049474;28;20453;-73
2022/01/23 14:29:27;;;;;;;7.73;4.80;;;-0.60;99.90;;;;;;5049203;28;20457;-73
2022/01/23 14:32:17;;;;;;;7.40;4.33;;;-0.60;99.90;;;;;;5049344;28;20457;-73
2022/01/23 14:34:44;;;;;;;9.60;4.90;;;-0.60;99.90;;;;;;5049382;28;20488;-72
2022/01/23 14:37:11;;;;;;;7.80;4.13;;;-0.80;99.90;;;;;;5049238;28;20526;-72
2022/01/23 14:39:40;;;;;;;6.97;4.50;;;-0.80;99.90;;;;;;5049229;28;20996;-73
2022/01/23 14:42:13;;;;;;;6.30;4.00;;;-0.90;99.90;;;;;;5049394;28;20467;-72
2022/01/23 14:44:40;;;;;;;6.10;4.20;;;-0.90;99.90;;;;;;5049218;28;20930;-73
2022/01/23 14:47:09;;;;;;;10.07;5.80;;;-1.00;99.90;;;;;;5049036;28;21035;-73
2022/01/23 14:49:37;;;;;;;9.13;4.50;;;-1.20;99.90;;;;;;5049326;28;20452;-73
2022/01/23 14:52:10;;;;;;;6.50;4.40;;;-1.20;99.90;;;;;;5049325;28;20460;-74
2022/01/23 14:54:37;;;;;;;9.03;4.87;;;-1.30;99.90;;;;;;5049084;28;20515;-71
2022/01/23 14:57:09;;;;;;;8.43;4.80;;;-1.40;99.90;;;;;;5048768;28;20527;-72
2022/01/23 14:59:37;;;;;;;11.30;5.07;;;-1.30;99.90;;;;;;5049079;28;20464;-73
2022/01/23 15:02:06;;;;;;;8.37;5.10;;;-1.30;99.90;;;;;;5049145;28;20440;-73
2022/01/23 15:04:44;;;;;;;6.47;4.20;;;-1.20;99.90;;;;;;5048664;28;20547;-72
2022/01/23 15:07:15;;;;;;;7.63;4.50;;;-1.30;99.90;;;;;;5048557;28;20478;-72
2022/01/23 15:09:45;;;;;;;6.67;4.20;;;-1.10;99.90;;;;;;5049066;28;20539;-73
2022/01/23 15:12:13;;;;;;;9.13;5.57;;;-1.10;99.90;;;;;;5048928;28;20457;-73
2022/01/23 15:14:40;;;;;;;8.73;5.50;;;-1.30;99.90;;;;;;5049088;28;20469;-73
2022/01/23 15:17:08;;;;;;;8.83;5.40;;;-1.30;99.90;;;;;;5048145;28;20495;-73
2022/01/23 15:19:35;;;;;;;10.73;5.53;;;-1.30;99.90;;;;;;5048543;28;20540;-73
2022/01/23 15:22:03;;;;;;;9.13;6.07;;;-1.30;99.90;;;;;;5048781;28;20448;-71
2022/01/23 15:24:30;;;;;;;8.93;6.10;;;-1.10;99.90;;;;;;5049937;28;20469;-72
2022/01/23 15:26:57;;;;;;;9.10;5.30;;;-0.90;99.90;;;;;;5052588;28;20520;-72
2022/01/23 15:29:25;;;;;;;9.93;5.80;;;-1.10;99.90;;;;;;5052626;28;20446;-71
2022/01/23 15:31:52;;;;;;;9.47;5.90;;;-1.20;99.90;;;;;;5054514;28;20452;-70
2022/01/23 15:34:19;;;;;;;11.80;6.00;;;-1.20;99.90;;;;;;5052853;28;20947;-72
2022/01/23 15:36:47;;;;;;;8.80;5.90;;;-1.00;99.90;;;;;;5052135;28;20456;-73
2022/01/23 15:39:15;;;;;;;11.70;6.33;;;-0.90;99.90;;;;;;5052500;28;20948;-68
2022/01/23 15:41:43;;;;;;;7.47;5.93;;;-0.90;99.90;;;;;;5052292;28;20494;-68
2022/01/23 15:44:10;;;;;;;10.20;5.73;;;-0.90;99.90;;;;;;5052439;28;20465;-68
2022/01/23 15:46:39;;;;;;;12.17;5.90;;;-0.70;99.90;;;;;;5051891;28;20457;-70
2022/01/23 15:49:07;;;;;;;8.03;5.60;;;-0.80;99.90;;;;;;5052240;28;20473;-70
2022/01/23 15:51:34;;;;;;;8.90;5.60;;;-0.80;99.90;;;;;;5052460;28;20449;-75
2022/01/23 15:54:01;;;;;;;8.87;5.37;;;-0.90;99.90;;;;;;5052121;28;20506;-68
2022/01/23 15:56:29;;;;;;;8.30;5.10;;;-0.80;99.90;;;;;;5052058;28;20457;-69